sensor_id;sensor_type;location;lat;lon;timestamp;pressure;altitude;pressure_sealevel;temperature;humidity
54389;BME280;40975;50.390;8.640;2023-04-23T00:02:14;98333.56;;;11.71;100.00
54389;BME280;40975;50.390;8.640;2023-04-23T00:04:48;98327.75;;;11.68;100.00
54389;BME280;40975;50.390;8.640;2023-04-23T00:07:14;98329.22;;;11.70;100.00
54389;BME280;40975;50.390;8.640;2023-04-23T00:09:42;98318.47;;;11.63;100.00
54389;BME280;40975;50.390;8.640;2023-04-23T00:12:08;98322.91;;;11.71;100.00
54389;BME280;40975;50.390;8.640;2023-04-23T00:14:33;98327.75;;;11.68;100.00
54389;BME280;40975;50.390;8.640;2023-04-23T00:16:59;98325.59;;;11.63;100.00
54389;BME280;40975;50.390;8.640;2023-04-23T00:19:24;98323.78;;;11.63;100.00
54389;BME280;40975;50.390;8.640;2023-04-23T00:21:50;98330.56;;;11.66;100.00
54389;BME280;40975;50.390;8.640;2023-04-23T00:24:15;98317.81;;;11.61;100.00
54389;BME280;40975;50.390;8.640;2023-04-23T00:26:40;98324.78;;;11.62;100.00
54389;BME280;40975;50.390;8.640;2023-04-23T00:29:06;98327.13;;;11.57;100.00
54389;BME280;40975;50.390;8.640;2023-04-23T00:31:31;98318.13;;;11.58;100.00
54389;BME280;40975;50.390;8.640;2023-04-23T00:33:56;98314.84;;;11.56;100.00
54389;BME280;40975;50.390;8.640;2023-04-23T00:36:22;98315.00;;;11.55;100.00
54389;BME280;40975;50.390;8.640;2023-04-23T00:38:47;98330.13;;;11.54;100.00
54389;BME280;40975;50.390;8.640;2023-04-23T00:41:13;98320.50;;;11.53;100.00
54389;BME280;40975;50.390;8.640;2023-04-23T00:43:39;98323.50;;;11.50;100.00
54389;BME280;40975;50.390;8.640;2023-04-23T00:46:05;98321.84;;;11.49;100.00
54389;BME280;40975;50.390;8.640;2023-04-23T00:48:32;98324.00;;;11.45;100.00
54389;BME280;40975;50.390;8.640;2023-04-23T00:50:59;98311.91;;;11.43;100.00
54389;BME280;40975;50.390;8.640;2023-04-23T00:53:27;98316.41;;;11.42;100.00
54389;BME280;40975;50.390;8.640;2023-04-23T00:55:53;98312.22;;;11.40;100.00
54389;BME280;40975;50.390;8.640;2023-04-23T00:58:19;98312.41;;;11.38;100.00
54389;BME280;40975;50.390;8.640;2023-04-23T01:00:46;98314.25;;;11.38;100.00
54389;BME280;40975;50.390;8.640;2023-04-23T01:03:13;98313.59;;;11.35;100.00
54389;BME280;40975;50.390;8.640;2023-04-23T01:05:41;98310.75;;;11.37;100.00
54389;BME280;40975;50.390;8.640;2023-04-23T01:08:08;98320.72;;;11.35;100.00
54389;BME280;40975;50.390;8.640;2023-04-23T01:10:34;98319.25;;;11.32;100.00
54389;BME280;40975;50.390;8.640;2023-04-23T01:12:59;98313.94;;;11.32;100.00
54389;BME280;40975;50.390;8.640;2023-04-23T01:15:25;98306.97;;;11.31;100.00
54389;BME280;40975;50.390;8.640;2023-04-23T01:17:50;98308.13;;;11.29;100.00
54389;BME280;40975;50.390;8.640;2023-04-23T01:20:17;98311.63;;;11.21;100.00
54389;BME280;40975;50.390;8.640;2023-04-23T01:22:43;98316.63;;;11.24;100.00
54389;BME280;40975;50.390;8.640;2023-04-23T01:25:08;98323.09;;;11.22;100.00
54389;BME280;40975;50.390;8.640;2023-04-23T01:27:34;98323.91;;;11.22;100.00
54389;BME280;40975;50.390;8.640;2023-04-23T01:30:02;98324.75;;;11.23;100.00
54389;BME280;40975;50.390;8.640;2023-04-23T01:32:29;98327.25;;;11.24;100.00
54389;BME280;40975;50.390;8.640;2023-04-23T01:34:55;98328.41;;;11.22;100.00
54389;BME280;40975;50.390;8.640;2023-04-23T01:37:22;98322.09;;;11.14;100.00
54389;BME280;40975;50.390;8.640;2023-04-23T01:39:48;98330.44;;;11.11;100.00
54389;BME280;40975;50.390;8.640;2023-04-23T01:42:13;98333.41;;;11.08;100.00
54389;BME280;40975;50.390;8.640;2023-04-23T01:44:39;98333.25;;;11.01;100.00
54389;BME280;40975;50.390;8.640;2023-04-23T01:47:04;98325.63;;;10.98;100.00
54389;BME280;40975;50.390;8.640;2023-04-23T01:49:30;98328.13;;;11.00;100.00
54389;BME280;40975;50.390;8.640;2023-04-23T01:51:55;98324.50;;;10.93;100.00
54389;BME280;40975;50.390;8.640;2023-04-23T01:54:21;98322.84;;;10.92;100.00
54389;BME280;40975;50.390;8.640;2023-04-23T01:56:48;98328.28;;;10.90;100.00
54389;BME280;40975;50.390;8.640;2023-04-23T01:59:14;98332.31;;;10.86;100.00
54389;BME280;40975;50.390;8.640;2023-04-23T02:01:43;98329.78;;;10.84;100.00
54389;BME280;40975;50.390;8.640;2023-04-23T02:04:09;98329.97;;;10.83;100.00
54389;BME280;40975;50.390;8.640;2023-04-23T02:06:35;98332.13;;;10.79;100.00
54389;BME280;40975;50.390;8.640;2023-04-23T02:09:00;98329.81;;;10.76;100.00
54389;BME280;40975;50.390;8.640;2023-04-23T02:11:25;98328.50;;;10.72;100.00
54389;BME280;40975;50.390;8.640;2023-04-23T02:13:51;98328.16;;;10.75;100.00
54389;BME280;40975;50.390;8.640;2023-04-23T02:16:16;98331.78;;;10.74;100.00
54389;BME280;40975;50.390;8.640;2023-04-23T02:18:41;98341.59;;;10.73;100.00
54389;BME280;40975;50.390;8.640;2023-04-23T02:21:07;98339.75;;;10.74;100.00
54389;BME280;40975;50.390;8.640;2023-04-23T02:23:32;98342.75;;;10.71;100.00
54389;BME280;40975;50.390;8.640;2023-04-23T02:25:57;98342.41;;;10.74;100.00
54389;BME280;40975;50.390;8.640;2023-04-23T02:28:23;98341.91;;;10.70;100.00
54389;BME280;40975;50.390;8.640;2023-04-23T02:30:48;98338.44;;;10.70;100.00
54389;BME280;40975;50.390;8.640;2023-04-23T02:33:14;98340.25;;;10.69;100.00
54389;BME280;40975;50.390;8.640;2023-04-23T02:35:39;98349.38;;;10.67;100.00
54389;BME280;40975;50.390;8.640;2023-04-23T02:38:05;98355.34;;;10.69;100.00
54389;BME280;40975;50.390;8.640;2023-04-23T02:40:30;98340.44;;;10.68;100.00
54389;BME280;40975;50.390;8.640;2023-04-23T02:42:55;98341.09;;;10.70;100.00
54389;BME280;40975;50.390;8.640;2023-04-23T02:45:21;98340.91;;;10.71;100.00
54389;BME280;40975;50.390;8.640;2023-04-23T02:47:49;98343.56;;;10.71;100.00
54389;BME280;40975;50.390;8.640;2023-04-23T02:50:14;98356.19;;;10.69;100.00
54389;BME280;40975;50.390;8.640;2023-04-23T02:52:40;98355.19;;;10.70;100.00
54389;BME280;40975;50.390;8.640;2023-04-23T02:55:06;98349.38;;;10.67;100.00
54389;BME280;40975;50.390;8.640;2023-04-23T02:57:33;98347.91;;;10.64;100.00
54389;BME280;40975;50.390;8.640;2023-04-23T02:59:59;98351.22;;;10.66;100.00
54389;BME280;40975;50.390;8.640;2023-04-23T03:02:32;98353.38;;;10.63;100.00
54389;BME280;40975;50.390;8.640;2023-04-23T03:04:57;98356.84;;;10.63;100.00
54389;BME280;40975;50.390;8.640;2023-04-23T03:07:23;98361.00;;;10.66;100.00
54389;BME280;40975;50.390;8.640;2023-04-23T03:09:49;98352.34;;;10.64;100.00
54389;BME280;40975;50.390;8.640;2023-04-23T03:12:14;98360.81;;;10.59;100.00
54389;BME280;40975;50.390;8.640;2023-04-23T03:14:40;98366.97;;;10.60;100.00
54389;BME280;40975;50.390;8.640;2023-04-23T03:17:05;98365.97;;;10.61;100.00
54389;BME280;40975;50.390;8.640;2023-04-23T03:19:31;98366.13;;;10.59;100.00
54389;BME280;40975;50.390;8.640;2023-04-23T03:21:57;98362.81;;;10.57;100.00
54389;BME280;40975;50.390;8.640;2023-04-23T03:24:23;98358.50;;;10.56;100.00
54389;BME280;40975;50.390;8.640;2023-04-23T03:26:48;98360.66;;;10.52;100.00
54389;BME280;40975;50.390;8.640;2023-04-23T03:29:14;98364.97;;;10.53;100.00
54389;BME280;40975;50.390;8.640;2023-04-23T03:31:39;98361.16;;;10.56;100.00
54389;BME280;40975;50.390;8.640;2023-04-23T03:34:07;98363.97;;;10.54;100.00
54389;BME280;40975;50.390;8.640;2023-04-23T03:36:34;98357.84;;;10.54;100.00
54389;BME280;40975;50.390;8.640;2023-04-23T03:39:00;98360.66;;;10.52;100.00
54389;BME280;40975;50.390;8.640;2023-04-23T03:41:32;98360.50;;;10.54;100.00
54389;BME280;40975;50.390;8.640;2023-04-23T03:43:58;98353.53;;;10.53;100.00
54389;BME280;40975;50.390;8.640;2023-04-23T03:46:37;98352.84;;;10.51;100.00
54389;BME280;40975;50.390;8.640;2023-04-23T03:49:03;98356.84;;;10.47;100.00
54389;BME280;40975;50.390;8.640;2023-04-23T03:51:28;98355.19;;;10.46;100.00
54389;BME280;40975;50.390;8.640;2023-04-23T03:53:53;98367.47;;;10.47;100.00
54389;BME280;40975;50.390;8.640;2023-04-23T03:56:40;98367.97;;;10.42;100.00
54389;BME280;40975;50.390;8.640;2023-04-23T03:59:13;98374.41;;;10.39;100.00
54389;BME280;40975;50.390;8.640;2023-04-23T04:01:38;98364.78;;;10.38;100.00
54389;BME280;40975;50.390;8.640;2023-04-23T04:04:04;98369.72;;;10.33;100.00
54389;BME280;40975;50.390;8.640;2023-04-23T04:06:32;98377.00;;;10.31;100.00
54389;BME280;40975;50.390;8.640;2023-04-23T04:08:57;98363.91;;;10.30;100.00
54389;BME280;40975;50.390;8.640;2023-04-23T04:11:22;98369.41;;;10.28;100.00
54389;BME280;40975;50.390;8.640;2023-04-23T04:13:47;98374.03;;;10.26;100.00
54389;BME280;40975;50.390;8.640;2023-04-23T04:16:13;98380.31;;;10.25;100.00
54389;BME280;40975;50.390;8.640;2023-04-23T04:18:38;98375.16;;;10.23;100.00
54389;BME280;40975;50.390;8.640;2023-04-23T04:21:03;98379.31;;;10.18;100.00
54389;BME280;40975;50.390;8.640;2023-04-23T04:23:29;98378.78;;;10.14;100.00
54389;BME280;40975;50.390;8.640;2023-04-23T04:25:55;98371.31;;;10.09;100.00
54389;BME280;40975;50.390;8.640;2023-04-23T04:28:21;98354.22;;;9.95;100.00
54389;BME280;40975;50.390;8.640;2023-04-23T04:30:49;98377.97;;;10.05;100.00
54389;BME280;40975;50.390;8.640;2023-04-23T04:33:15;98371.66;;;9.98;100.00
54389;BME280;40975;50.390;8.640;2023-04-23T04:35:41;98380.25;;;10.00;100.00
54389;BME280;40975;50.390;8.640;2023-04-23T04:38:07;98384.91;;;9.98;100.00
54389;BME280;40975;50.390;8.640;2023-04-23T04:40:33;98387.00;;;9.94;100.00
54389;BME280;40975;50.390;8.640;2023-04-23T04:42:58;98384.19;;;9.88;100.00
54389;BME280;40975;50.390;8.640;2023-04-23T04:45:24;98385.03;;;9.88;100.00
54389;BME280;40975;50.390;8.640;2023-04-23T04:47:50;98396.44;;;9.89;100.00
54389;BME280;40975;50.390;8.640;2023-04-23T04:50:15;98392.16;;;9.88;100.00
54389;BME280;40975;50.390;8.640;2023-04-23T04:52:41;98388.81;;;9.86;100.00
54389;BME280;40975;50.390;8.640;2023-04-23T04:55:07;98385.00;;;9.80;100.00
54389;BME280;40975;50.390;8.640;2023-04-23T04:57:32;98383.97;;;9.73;100.00
54389;BME280;40975;50.390;8.640;2023-04-23T04:59:57;98383.97;;;9.73;100.00
54389;BME280;40975;50.390;8.640;2023-04-23T05:02:23;98390.41;;;9.70;100.00
54389;BME280;40975;50.390;8.640;2023-04-23T05:04:48;98393.06;;;9.70;100.00
54389;BME280;40975;50.390;8.640;2023-04-23T05:07:13;98392.41;;;9.68;100.00
54389;BME280;40975;50.390;8.640;2023-04-23T05:09:39;98394.50;;;9.64;100.00
54389;BME280;40975;50.390;8.640;2023-04-23T05:12:04;98391.56;;;9.68;100.00
54389;BME280;40975;50.390;8.640;2023-04-23T05:14:32;98387.41;;;9.65;100.00
54389;BME280;40975;50.390;8.640;2023-04-23T05:16:57;98389.94;;;9.75;100.00
54389;BME280;40975;50.390;8.640;2023-04-23T05:19:22;98391.09;;;9.80;100.00
54389;BME280;40975;50.390;8.640;2023-04-23T05:21:48;98391.81;;;9.91;100.00
54389;BME280;40975;50.390;8.640;2023-04-23T05:24:13;98385.41;;;10.02;100.00
54389;BME280;40975;50.390;8.640;2023-04-23T05:26:38;98384.25;;;10.13;100.00
54389;BME280;40975;50.390;8.640;2023-04-23T05:29:04;98382.31;;;10.23;100.00
54389;BME280;40975;50.390;8.640;2023-04-23T05:31:29;98391.44;;;10.29;100.00
54389;BME280;40975;50.390;8.640;2023-04-23T05:33:55;98385.47;;;10.35;100.00
54389;BME280;40975;50.390;8.640;2023-04-23T05:36:21;98387.84;;;10.46;100.00
54389;BME280;40975;50.390;8.640;2023-04-23T05:38:46;98386.19;;;10.45;100.00
54389;BME280;40975;50.390;8.640;2023-04-23T05:41:12;98380.88;;;10.45;100.00
54389;BME280;40975;50.390;8.640;2023-04-23T05:43:37;98378.72;;;10.49;100.00
54389;BME280;40975;50.390;8.640;2023-04-23T05:46:02;98385.03;;;10.56;100.00
54389;BME280;40975;50.390;8.640;2023-04-23T05:48:32;98380.56;;;10.65;100.00
54389;BME280;40975;50.390;8.640;2023-04-23T05:50:57;98382.38;;;10.72;100.00
54389;BME280;40975;50.390;8.640;2023-04-23T05:53:23;98388.69;;;10.80;100.00
54389;BME280;40975;50.390;8.640;2023-04-23T05:55:48;98394.84;;;10.80;100.00
54389;BME280;40975;50.390;8.640;2023-04-23T05:58:13;98390.84;;;10.84;100.00
54389;BME280;40975;50.390;8.640;2023-04-23T06:00:40;98401.47;;;10.84;100.00
54389;BME280;40975;50.390;8.640;2023-04-23T06:03:05;98404.28;;;10.83;100.00
54389;BME280;40975;50.390;8.640;2023-04-23T06:05:31;98403.13;;;10.85;100.00
54389;BME280;40975;50.390;8.640;2023-04-23T06:07:56;98409.78;;;10.89;100.00
54389;BME280;40975;50.390;8.640;2023-04-23T06:10:22;98412.75;;;10.95;100.00
54389;BME280;40975;50.390;8.640;2023-04-23T06:12:47;98403.47;;;10.99;100.00
54389;BME280;40975;50.390;8.640;2023-04-23T06:15:14;98413.25;;;11.15;100.00
54389;BME280;40975;50.390;8.640;2023-04-23T06:17:39;98412.22;;;11.24;100.00
54389;BME280;40975;50.390;8.640;2023-04-23T06:20:05;98405.09;;;11.25;100.00
54389;BME280;40975;50.390;8.640;2023-04-23T06:22:33;98410.56;;;11.23;100.00
54389;BME280;40975;50.390;8.640;2023-04-23T06:24:58;98406.59;;;11.19;100.00
54389;BME280;40975;50.390;8.640;2023-04-23T06:27:23;98399.88;;;11.48;100.00
54389;BME280;40975;50.390;8.640;2023-04-23T06:29:51;98396.09;;;12.30;100.00
54389;BME280;40975;50.390;8.640;2023-04-23T06:32:17;98392.78;;;13.13;100.00
54389;BME280;40975;50.390;8.640;2023-04-23T06:34:43;98396.38;;;13.58;100.00
54389;BME280;40975;50.390;8.640;2023-04-23T06:37:08;98406.09;;;14.11;100.00
54389;BME280;40975;50.390;8.640;2023-04-23T06:39:33;98399.03;;;14.61;100.00
54389;BME280;40975;50.390;8.640;2023-04-23T06:41:59;98391.72;;;15.14;100.00
54389;BME280;40975;50.390;8.640;2023-04-23T06:44:33;98397.00;;;15.35;100.00
54389;BME280;40975;50.390;8.640;2023-04-23T06:46:59;98400.84;;;15.90;100.00
54389;BME280;40975;50.390;8.640;2023-04-23T06:49:25;98403.09;;;16.41;97.70
54389;BME280;40975;50.390;8.640;2023-04-23T06:51:50;98394.13;;;17.03;92.33
54389;BME280;40975;50.390;8.640;2023-04-23T06:54:16;98400.22;;;18.68;83.40
54389;BME280;40975;50.390;8.640;2023-04-23T06:56:41;98406.13;;;19.16;79.05
54389;BME280;40975;50.390;8.640;2023-04-23T06:59:06;98402.09;;;17.70;80.19
54389;BME280;40975;50.390;8.640;2023-04-23T07:01:43;98403.03;;;16.97;81.73
54389;BME280;40975;50.390;8.640;2023-04-23T07:04:08;98405.81;;;16.61;82.90
54389;BME280;40975;50.390;8.640;2023-04-23T07:06:34;98394.72;;;16.85;82.22
54389;BME280;40975;50.390;8.640;2023-04-23T07:08:59;98390.34;;;16.57;85.49
54389;BME280;40975;50.390;8.640;2023-04-23T07:11:25;98383.00;;;17.19;80.36
54389;BME280;40975;50.390;8.640;2023-04-23T07:13:50;98382.78;;;18.13;77.75
54389;BME280;40975;50.390;8.640;2023-04-23T07:16:15;98388.75;;;18.86;74.18
54389;BME280;40975;50.390;8.640;2023-04-23T07:18:41;98387.38;;;19.53;71.83
54389;BME280;40975;50.390;8.640;2023-04-23T07:21:06;98394.06;;;19.25;69.81
54389;BME280;40975;50.390;8.640;2023-04-23T07:23:31;98388.06;;;19.23;70.47
54389;BME280;40975;50.390;8.640;2023-04-23T07:25:57;98385.22;;;19.80;67.49
54389;BME280;40975;50.390;8.640;2023-04-23T07:28:22;98367.38;;;20.47;64.28
54389;BME280;40975;50.390;8.640;2023-04-23T07:30:47;98354.38;;;20.44;62.57
54389;BME280;40975;50.390;8.640;2023-04-23T07:33:13;98369.84;;;20.18;62.62
54389;BME280;40975;50.390;8.640;2023-04-23T07:35:38;98373.13;;;19.27;65.96
54389;BME280;40975;50.390;8.640;2023-04-23T07:38:04;98372.75;;;18.98;67.59
54389;BME280;40975;50.390;8.640;2023-04-23T07:40:29;98363.75;;;19.11;68.85
54389;BME280;40975;50.390;8.640;2023-04-23T07:42:55;98347.78;;;18.59;66.20
54389;BME280;40975;50.390;8.640;2023-04-23T07:45:21;98352.13;;;19.17;66.37
54389;BME280;40975;50.390;8.640;2023-04-23T07:47:48;98350.28;;;18.60;67.13
54389;BME280;40975;50.390;8.640;2023-04-23T07:50:14;98347.78;;;19.16;67.26
54389;BME280;40975;50.390;8.640;2023-04-23T07:52:39;98345.03;;;19.97;63.07
54389;BME280;40975;50.390;8.640;2023-04-23T07:55:06;98356.16;;;21.40;59.00
54389;BME280;40975;50.390;8.640;2023-04-23T07:57:31;98372.44;;;21.93;57.41
54389;BME280;40975;50.390;8.640;2023-04-23T07:59:56;98366.78;;;21.94;55.46
54389;BME280;40975;50.390;8.640;2023-04-23T08:02:22;98379.03;;;22.55;55.02
54389;BME280;40975;50.390;8.640;2023-04-23T08:04:48;98375.72;;;23.33;52.30
54389;BME280;40975;50.390;8.640;2023-04-23T08:07:13;98375.81;;;23.60;50.99
54389;BME280;40975;50.390;8.640;2023-04-23T08:09:38;98373.69;;;23.62;51.92
54389;BME280;40975;50.390;8.640;2023-04-23T08:12:04;98362.84;;;21.37;54.00
54389;BME280;40975;50.390;8.640;2023-04-23T08:14:29;98358.34;;;21.90;55.49
54389;BME280;40975;50.390;8.640;2023-04-23T08:16:54;98350.84;;;20.74;57.73
54389;BME280;40975;50.390;8.640;2023-04-23T08:19:20;98362.88;;;22.02;57.62
54389;BME280;40975;50.390;8.640;2023-04-23T08:21:45;98361.78;;;22.15;54.09
54389;BME280;40975;50.390;8.640;2023-04-23T08:24:11;98351.81;;;21.63;60.38
54389;BME280;40975;50.390;8.640;2023-04-23T08:26:36;98343.72;;;22.32;59.59
54389;BME280;40975;50.390;8.640;2023-04-23T08:29:01;98354.94;;;24.49;50.88
54389;BME280;40975;50.390;8.640;2023-04-23T08:31:27;98348.84;;;25.88;47.96
54389;BME280;40975;50.390;8.640;2023-04-23T08:33:52;98351.69;;;26.14;48.60
54389;BME280;40975;50.390;8.640;2023-04-23T08:36:18;98351.28;;;26.89;45.79
54389;BME280;40975;50.390;8.640;2023-04-23T08:38:43;98349.91;;;26.92;44.47
54389;BME280;40975;50.390;8.640;2023-04-23T08:41:10;98339.88;;;23.08;49.84
54389;BME280;40975;50.390;8.640;2023-04-23T08:46:24;98334.22;;;19.30;60.55
54389;BME280;40975;50.390;8.640;2023-04-23T08:48:51;98344.06;;;18.60;65.16
54389;BME280;40975;50.390;8.640;2023-04-23T08:51:18;98337.63;;;17.90;68.67
54389;BME280;40975;50.390;8.640;2023-04-23T08:53:48;98286.72;;;16.91;73.34
54389;BME280;40975;50.390;8.640;2023-04-23T08:56:16;98341.16;;;16.98;76.18
54389;BME280;40975;50.390;8.640;2023-04-23T08:58:41;98342.94;;;16.57;78.34
54389;BME280;40975;50.390;8.640;2023-04-23T09:01:07;98325.38;;;16.14;78.68
54389;BME280;40975;50.390;8.640;2023-04-23T09:03:34;98334.69;;;15.70;80.82
54389;BME280;40975;50.390;8.640;2023-04-23T09:05:59;98334.72;;;15.42;82.89
54389;BME280;40975;50.390;8.640;2023-04-23T09:08:24;98330.06;;;15.50;85.05
54389;BME280;40975;50.390;8.640;2023-04-23T09:10:51;98330.69;;;15.59;84.13
54389;BME280;40975;50.390;8.640;2023-04-23T09:13:17;98334.50;;;17.28;78.27
54389;BME280;40975;50.390;8.640;2023-04-23T09:15:42;98340.97;;;17.85;73.02
54389;BME280;40975;50.390;8.640;2023-04-23T09:18:08;98337.84;;;17.03;75.17
54389;BME280;40975;50.390;8.640;2023-04-23T09:20:34;98332.44;;;16.42;79.51
54389;BME280;40975;50.390;8.640;2023-04-23T09:23:00;98343.03;;;15.95;76.97
54389;BME280;40975;50.390;8.640;2023-04-23T09:25:25;98335.97;;;18.34;69.88
54389;BME280;40975;50.390;8.640;2023-04-23T09:27:51;98350.16;;;21.38;56.49
54389;BME280;40975;50.390;8.640;2023-04-23T09:30:18;98347.72;;;23.44;52.15
54389;BME280;40975;50.390;8.640;2023-04-23T09:32:44;98338.56;;;24.99;48.71
54389;BME280;40975;50.390;8.640;2023-04-23T09:35:12;98346.09;;;25.77;45.49
54389;BME280;40975;50.390;8.640;2023-04-23T09:37:41;98335.97;;;26.52;43.15
54389;BME280;40975;50.390;8.640;2023-04-23T09:40:07;98332.47;;;27.08;43.90
54389;BME280;40975;50.390;8.640;2023-04-23T09:42:33;98339.75;;;27.39;43.52
54389;BME280;40975;50.390;8.640;2023-04-23T09:45:06;98338.97;;;27.23;43.20
54389;BME280;40975;50.390;8.640;2023-04-23T09:48:05;98331.91;;;26.96;41.85
54389;BME280;40975;50.390;8.640;2023-04-23T09:50:35;98322.22;;;24.89;46.25
54389;BME280;40975;50.390;8.640;2023-04-23T09:53:02;98325.31;;;25.51;46.35
54389;BME280;40975;50.390;8.640;2023-04-23T09:55:32;98317.63;;;26.01;44.69
54389;BME280;40975;50.390;8.640;2023-04-23T09:58:10;98316.44;;;25.18;43.97
54389;BME280;40975;50.390;8.640;2023-04-23T10:00:37;98311.00;;;24.52;46.56
54389;BME280;40975;50.390;8.640;2023-04-23T10:03:04;98309.66;;;25.20;44.87
54389;BME280;40975;50.390;8.640;2023-04-23T10:05:30;98315.97;;;25.89;44.70
54389;BME280;40975;50.390;8.640;2023-04-23T10:07:56;98303.16;;;27.76;39.53
54389;BME280;40975;50.390;8.640;2023-04-23T10:10:22;98301.56;;;27.65;39.15
54389;BME280;40975;50.390;8.640;2023-04-23T10:12:47;98293.03;;;26.80;41.66
54389;BME280;40975;50.390;8.640;2023-04-23T10:15:15;98295.72;;;26.95;42.44
54389;BME280;40975;50.390;8.640;2023-04-23T10:17:41;98295.03;;;27.60;39.83
54389;BME280;40975;50.390;8.640;2023-04-23T10:20:08;98296.44;;;28.03;38.87
54389;BME280;40975;50.390;8.640;2023-04-23T10:22:34;98291.00;;;28.08;39.93
54389;BME280;40975;50.390;8.640;2023-04-23T10:25:04;98293.56;;;26.97;40.09
54389;BME280;40975;50.390;8.640;2023-04-23T10:27:33;98290.72;;;27.34;39.61
54389;BME280;40975;50.390;8.640;2023-04-23T10:30:01;98294.50;;;25.88;40.79
54389;BME280;40975;50.390;8.640;2023-04-23T10:32:29;98286.91;;;24.56;46.42
54389;BME280;40975;50.390;8.640;2023-04-23T10:34:57;98287.47;;;26.07;41.99
54389;BME280;40975;50.390;8.640;2023-04-23T10:37:23;98285.19;;;25.68;40.01
54389;BME280;40975;50.390;8.640;2023-04-23T10:39:52;98283.28;;;25.10;39.76
54389;BME280;40975;50.390;8.640;2023-04-23T10:42:18;98276.88;;;23.97;42.48
54389;BME280;40975;50.390;8.640;2023-04-23T10:44:44;98278.47;;;25.97;41.88
54389;BME280;40975;50.390;8.640;2023-04-23T10:47:16;98276.72;;;24.68;42.80
54389;BME280;40975;50.390;8.640;2023-04-23T10:49:42;98281.81;;;23.16;46.10
54389;BME280;40975;50.390;8.640;2023-04-23T10:52:15;98266.34;;;21.68;46.21
54389;BME280;40975;50.390;8.640;2023-04-23T10:54:57;98275.34;;;20.97;50.09
54389;BME280;40975;50.390;8.640;2023-04-23T10:57:24;98262.22;;;20.65;49.33
54389;BME280;40975;50.390;8.640;2023-04-23T10:59:53;98265.06;;;20.28;52.13
54389;BME280;40975;50.390;8.640;2023-04-23T11:02:21;98264.06;;;19.99;53.91
54389;BME280;40975;50.390;8.640;2023-04-23T11:04:55;98268.22;;;19.46;54.48
54389;BME280;40975;50.390;8.640;2023-04-23T11:07:29;98254.25;;;18.74;55.43
54389;BME280;40975;50.390;8.640;2023-04-23T11:09:58;98258.66;;;18.94;56.14
54389;BME280;40975;50.390;8.640;2023-04-23T11:14:50;98256.94;;;18.49;55.06
54389;BME280;40975;50.390;8.640;2023-04-23T11:17:17;98258.78;;;18.23;56.81
54389;BME280;40975;50.390;8.640;2023-04-23T11:20:14;98258.31;;;18.01;58.36
54389;BME280;40975;50.390;8.640;2023-04-23T11:22:44;98262.53;;;17.77;60.16
54389;BME280;40975;50.390;8.640;2023-04-23T11:25:14;98263.47;;;17.57;60.99
54389;BME280;40975;50.390;8.640;2023-04-23T11:27:45;98260.72;;;17.12;62.48
54389;BME280;40975;50.390;8.640;2023-04-23T11:30:16;98255.56;;;17.03;64.25
54389;BME280;40975;50.390;8.640;2023-04-23T11:32:45;98248.56;;;16.89;63.50
54389;BME280;40975;50.390;8.640;2023-04-23T11:35:13;98247.72;;;17.15;63.98
54389;BME280;40975;50.390;8.640;2023-04-23T11:37:39;98247.34;;;17.05;64.16
54389;BME280;40975;50.390;8.640;2023-04-23T11:40:07;98237.41;;;17.19;63.64
54389;BME280;40975;50.390;8.640;2023-04-23T11:42:41;98237.88;;;17.54;62.30
54389;BME280;40975;50.390;8.640;2023-04-23T11:45:20;98238.31;;;17.45;59.70
54389;BME280;40975;50.390;8.640;2023-04-23T11:47:48;98226.00;;;17.76;59.31
54389;BME280;40975;50.390;8.640;2023-04-23T11:50:19;98228.28;;;17.79;59.33
54389;BME280;40975;50.390;8.640;2023-04-23T11:52:45;98216.59;;;18.05;60.53
54389;BME280;40975;50.390;8.640;2023-04-23T11:55:10;98217.50;;;18.17;59.66
54389;BME280;40975;50.390;8.640;2023-04-23T11:57:41;98216.31;;;18.13;58.74
54389;BME280;40975;50.390;8.640;2023-04-23T12:00:17;98219.84;;;18.07;60.15
54389;BME280;40975;50.390;8.640;2023-04-23T12:02:59;98212.91;;;17.93;60.57
54389;BME280;40975;50.390;8.640;2023-04-23T12:05:33;98218.88;;;18.01;59.88
54389;BME280;40975;50.390;8.640;2023-04-23T12:08:09;98203.81;;;17.94;58.63
54389;BME280;40975;50.390;8.640;2023-04-23T12:10:50;98208.44;;;17.80;59.11
54389;BME280;40975;50.390;8.640;2023-04-23T12:13:23;98205.06;;;17.59;59.83
54389;BME280;40975;50.390;8.640;2023-04-23T12:15:56;98199.91;;;17.96;59.60
54389;BME280;40975;50.390;8.640;2023-04-23T12:21:07;98202.19;;;17.47;60.77
54389;BME280;40975;50.390;8.640;2023-04-23T12:23:34;98204.63;;;17.17;61.32
54389;BME280;40975;50.390;8.640;2023-04-23T12:26:01;98195.53;;;17.18;62.19
54389;BME280;40975;50.390;8.640;2023-04-23T12:28:27;98207.66;;;17.27;58.20
54389;BME280;40975;50.390;8.640;2023-04-23T12:30:58;98190.53;;;17.35;56.84
54389;BME280;40975;50.390;8.640;2023-04-23T12:33:27;98191.13;;;17.37;57.78
54389;BME280;40975;50.390;8.640;2023-04-23T12:35:53;98197.84;;;17.07;58.10
54389;BME280;40975;50.390;8.640;2023-04-23T12:40:51;98182.50;;;17.28;58.75
54389;BME280;40975;50.390;8.640;2023-04-23T12:43:17;98193.06;;;17.62;58.08
54389;BME280;40975;50.390;8.640;2023-04-23T12:45:42;98181.16;;;18.40;55.47
54389;BME280;40975;50.390;8.640;2023-04-23T12:48:09;98173.03;;;18.72;53.37
54389;BME280;40975;50.390;8.640;2023-04-23T12:50:35;98173.56;;;18.81;53.86
54389;BME280;40975;50.390;8.640;2023-04-23T12:53:01;98186.50;;;19.09;54.53
54389;BME280;40975;50.390;8.640;2023-04-23T12:55:27;98185.22;;;19.31;52.03
54389;BME280;40975;50.390;8.640;2023-04-23T12:57:52;98173.72;;;19.05;49.88
54389;BME280;40975;50.390;8.640;2023-04-23T13:00:17;98167.84;;;19.45;49.61
54389;BME280;40975;50.390;8.640;2023-04-23T13:02:43;98159.84;;;19.38;51.65
54389;BME280;40975;50.390;8.640;2023-04-23T13:05:08;98155.03;;;19.59;51.67